Time;durP1;ratioP1;P1;durP2;ratioP2;P2;SDS_P1;SDS_P2;PMS_P1;PMS_P2;Temp;Humidity;BMP_temperature;BMP_pressure;BME280_temperature;BME280_humidity;BME280_pressure;Samples;Min_cycle;Max_cycle;Signal;HPM_P1;HPM_P2
2022/06/12 00:00:46;;;;;;;22.53;16.87;;;;;;;;;;4946776;28;20316;-66
2022/06/12 00:03:13;;;;;;;22.43;17.40;;;;;;;;;;4985344;28;20243;-66
2022/06/12 00:05:41;;;;;;;22.87;17.53;;;;;;;;;;5011746;28;20288;-66
2022/06/12 00:08:07;;;;;;;22.10;17.43;;;;;;;;;;5015877;28;20320;-66
2022/06/12 00:10:35;;;;;;;20.70;15.73;;;;;;;;;;4960611;28;20331;-65
2022/06/12 00:13:21;;;;;;;19.83;15.47;;;;;;;;;;4978182;28;20263;-65
2022/06/12 00:15:48;;;;;;;21.67;15.43;;;;;;;;;;4946080;28;20361;-66
2022/06/12 00:18:32;;;;;;;16.70;13.70;;;;;;;;;;4963224;28;20225;-66
2022/06/12 00:21:11;;;;;;;16.87;13.77;;;;;;;;;;4953942;28;219043;-65
2022/06/12 00:23:41;;;;;;;15.13;13.50;;;;;;;;;;4960974;28;20684;-66
2022/06/12 00:26:08;;;;;;;16.13;14.40;;;;;;;;;;4962287;28;20228;-65
2022/06/12 00:28:34;;;;;;;17.37;14.27;;;;;;;;;;4962653;28;20228;-65
2022/06/12 00:31:01;;;;;;;15.93;13.83;;;;;;;;;;4973196;28;20230;-66
2022/06/12 00:33:28;;;;;;;16.97;15.17;;;;;;;;;;4961417;28;20228;-65
2022/06/12 00:35:54;;;;;;;16.13;13.93;;;;;;;;;;4963249;28;21012;-66
2022/06/12 00:38:21;;;;;;;17.47;14.67;;;;;;;;;;4964149;28;20584;-65
2022/06/12 00:40:47;;;;;;;19.00;14.90;;;;;;;;;;4959536;28;20308;-66
2022/06/12 00:43:14;;;;;;;15.97;14.27;;;;;;;;;;4968377;28;20282;-65
2022/06/12 00:45:45;;;;;;;18.93;14.40;;;;;;;;;;4960254;28;20669;-66
2022/06/12 00:48:18;;;;;;;14.57;12.47;;;;;;;;;;4964557;28;20233;-67
2022/06/12 00:51:14;;;;;;;18.47;13.83;;;;;;;;;;4963473;28;20235;-66
2022/06/12 00:53:44;;;;;;;15.17;12.57;;;;;;;;;;4971778;28;20766;-65
2022/06/12 00:56:30;;;;;;;13.33;11.87;;;;;;;;;;4971280;28;20224;-70
2022/06/12 00:58:57;;;;;;;12.87;11.50;;;;;;;;;;4958527;28;20307;-66
2022/06/12 01:01:26;;;;;;;15.63;13.07;;;;;;;;;;4968008;28;20772;-65
2022/06/12 01:06:37;;;;;;;15.40;12.43;;;;;;;;;;4967505;28;20232;-66
2022/06/12 01:09:10;;;;;;;16.57;13.20;;;;;;;;;;4969996;28;20235;-65
2022/06/12 01:11:36;;;;;;;15.23;13.63;;;;;;;;;;4975019;28;20278;-65
2022/06/12 01:14:04;;;;;;;16.67;14.03;;;;;;;;;;4984036;28;20232;-65
2022/06/12 01:16:31;;;;;;;16.13;14.27;;;;;;;;;;4981296;28;20224;-66
2022/06/12 01:18:58;;;;;;;16.13;14.37;;;;;;;;;;4976933;28;20950;-65
2022/06/12 01:21:55;;;;;;;17.47;15.13;;;;;;;;;;4972040;28;20219;-66
2022/06/12 01:24:35;;;;;;;16.23;14.50;;;;;;;;;;4975164;28;20227;-65
2022/06/12 01:27:22;;;;;;;17.00;14.63;;;;;;;;;;4960362;28;20236;-65
2022/06/12 01:30:03;;;;;;;17.50;14.83;;;;;;;;;;5008677;28;20650;-65
2022/06/12 01:32:53;;;;;;;17.60;15.67;;;;;;;;;;4977682;28;20254;-65
2022/06/12 01:35:21;;;;;;;18.93;15.53;;;;;;;;;;4936724;28;20253;-66
2022/06/12 01:37:50;;;;;;;19.13;15.87;;;;;;;;;;4980787;28;21198;-65
2022/06/12 01:40:24;;;;;;;19.03;15.70;;;;;;;;;;4961409;28;20695;-66
2022/06/12 01:43:16;;;;;;;18.80;14.77;;;;;;;;;;4974707;28;20320;-65
2022/06/12 01:45:50;;;;;;;17.30;15.50;;;;;;;;;;4969406;28;20226;-66
2022/06/12 01:48:25;;;;;;;17.27;15.40;;;;;;;;;;4961300;28;20275;-65
2022/06/12 01:50:57;;;;;;;17.73;15.83;;;;;;;;;;4968316;28;20230;-65
2022/06/12 01:53:27;;;;;;;18.33;16.00;;;;;;;;;;4958313;28;20235;-65
2022/06/12 01:55:54;;;;;;;17.47;15.43;;;;;;;;;;4961657;28;21072;-65
2022/06/12 01:58:24;;;;;;;19.03;15.40;;;;;;;;;;4972746;28;20642;-65
2022/06/12 02:00:52;;;;;;;19.57;15.50;;;;;;;;;;4961600;28;20600;-65
2022/06/12 02:03:29;;;;;;;18.20;15.37;;;;;;;;;;4961520;28;20275;-66
2022/06/12 02:06:00;;;;;;;17.43;15.57;;;;;;;;;;4967068;28;20220;-65
2022/06/12 02:08:28;;;;;;;19.10;15.97;;;;;;;;;;4954799;28;20283;-68
2022/06/12 02:13:10;;;;;;;17.17;15.00;;;;;;;;;;4971294;28;20227;-65
2022/06/12 02:13:46;;;;;;;17.97;15.37;;;;;;;;;;4990410;28;20262;-65
2022/06/12 02:16:15;;;;;;;17.47;15.10;;;;;;;;;;4963482;28;20265;-65
2022/06/12 02:18:44;;;;;;;17.40;14.53;;;;;;;;;;4978116;28;20236;-65
2022/06/12 02:21:29;;;;;;;16.40;14.30;;;;;;;;;;4988924;28;20217;-65
2022/06/12 02:23:56;;;;;;;18.60;15.13;;;;;;;;;;4980631;28;20224;-65
2022/06/12 02:26:23;;;;;;;15.77;13.47;;;;;;;;;;4975629;28;20228;-65
2022/06/12 02:28:52;;;;;;;16.97;15.17;;;;;;;;;;4972556;28;20235;-65
2022/06/12 02:31:21;;;;;;;17.53;15.77;;;;;;;;;;4960604;28;20659;-65
2022/06/12 02:33:49;;;;;;;19.57;15.43;;;;;;;;;;4963761;28;20310;-64
2022/06/12 02:36:19;;;;;;;16.70;14.90;;;;;;;;;;4965504;28;20311;-65
2022/06/12 02:38:51;;;;;;;19.17;15.53;;;;;;;;;;4957686;28;20247;-65
2022/06/12 02:41:20;;;;;;;16.60;14.90;;;;;;;;;;4974280;28;20334;-66
2022/06/12 02:43:47;;;;;;;17.03;15.17;;;;;;;;;;4961270;28;20242;-66
2022/06/12 02:46:18;;;;;;;18.17;15.77;;;;;;;;;;4947398;28;20995;-64
2022/06/12 02:48:45;;;;;;;16.73;14.93;;;;;;;;;;4938016;28;20616;-66
2022/06/12 02:51:35;;;;;;;18.80;16.80;;;;;;;;;;4970049;28;20589;-66
2022/06/12 02:54:08;;;;;;;17.67;15.80;;;;;;;;;;4950277;28;20856;-66
2022/06/12 02:56:48;;;;;;;17.20;15.50;;;;;;;;;;4963646;28;39090;-67
2022/06/12 02:59:38;;;;;;;17.23;15.33;;;;;;;;;;4953668;28;20231;-66
2022/06/12 03:02:05;;;;;;;17.97;14.80;;;;;;;;;;4939496;28;23855;-68
2022/06/12 03:04:38;;;;;;;17.13;15.30;;;;;;;;;;4953571;28;20232;-67
2022/06/12 03:07:04;;;;;;;20.53;15.07;;;;;;;;;;4951211;28;21716;-67
2022/06/12 03:09:31;;;;;;;18.93;15.13;;;;;;;;;;4962139;28;20263;-66
2022/06/12 03:11:58;;;;;;;18.80;15.27;;;;;;;;;;4935184;28;40511;-66
2022/06/12 03:14:25;;;;;;;20.33;15.07;;;;;;;;;;4967877;28;20235;-66
2022/06/12 03:16:52;;;;;;;20.33;15.13;;;;;;;;;;4971729;28;22273;-69
2022/06/12 03:19:23;;;;;;;22.80;15.03;;;;;;;;;;4959943;28;214710;-67
2022/06/12 03:21:53;;;;;;;18.30;14.37;;;;;;;;;;4943139;28;20232;-67
2022/06/12 03:24:32;;;;;;;17.77;14.27;;;;;;;;;;4961482;28;20327;-67
2022/06/12 03:27:17;;;;;;;19.13;15.37;;;;;;;;;;4972030;28;20537;-65
2022/06/12 03:29:47;;;;;;;20.57;14.17;;;;;;;;;;4969215;28;20320;-66
2022/06/12 03:32:16;;;;;;;18.10;13.43;;;;;;;;;;4943232;28;20884;-66
2022/06/12 03:34:45;;;;;;;16.03;13.13;;;;;;;;;;4933176;28;20242;-67
2022/06/12 03:37:14;;;;;;;17.03;12.60;;;;;;;;;;4962298;28;37800;-66
2022/06/12 03:39:42;;;;;;;21.33;13.67;;;;;;;;;;4947814;28;24107;-67
2022/06/12 03:42:15;;;;;;;19.77;12.73;;;;;;;;;;4966345;28;20267;-68
2022/06/12 03:44:44;;;;;;;17.50;12.03;;;;;;;;;;4957273;28;20224;-65
2022/06/12 03:47:18;;;;;;;22.40;12.07;;;;;;;;;;4954970;28;20266;-67
2022/06/12 03:49:45;;;;;;;17.17;11.20;;;;;;;;;;4952934;28;20244;-66
2022/06/12 03:52:14;;;;;;;16.23;10.93;;;;;;;;;;4947190;28;35339;-67
2022/06/12 03:55:07;;;;;;;15.27;11.23;;;;;;;;;;4964695;28;21818;-67
2022/06/12 03:57:51;;;;;;;16.10;10.17;;;;;;;;;;4927219;28;20238;-66
2022/06/12 04:00:23;;;;;;;13.03;9.10;;;;;;;;;;4969616;28;20240;-66
2022/06/12 04:03:28;;;;;;;15.97;9.10;;;;;;;;;;4956644;28;41958;-67
2022/06/12 04:06:00;;;;;;;12.10;8.17;;;;;;;;;;4960127;28;20220;-67
2022/06/12 04:08:46;;;;;;;15.93;8.23;;;;;;;;;;4949172;28;20234;-66
2022/06/12 04:11:13;;;;;;;14.00;7.90;;;;;;;;;;4965386;28;20238;-68
2022/06/12 04:13:40;;;;;;;14.73;8.10;;;;;;;;;;4969570;28;20282;-68
2022/06/12 04:16:25;;;;;;;14.50;6.90;;;;;;;;;;4937478;28;20220;-66
2022/06/12 04:18:53;;;;;;;12.27;7.10;;;;;;;;;;4952186;28;20742;-67
2022/06/12 04:21:22;;;;;;;14.40;6.93;;;;;;;;;;4968357;28;20251;-68
2022/06/12 04:23:51;;;;;;;12.80;7.03;;;;;;;;;;4964534;28;20231;-68
2022/06/12 04:26:47;;;;;;;17.57;7.27;;;;;;;;;;4957939;28;21025;-67
2022/06/12 04:29:14;;;;;;;16.10;7.23;;;;;;;;;;4938976;28;20232;-68
2022/06/12 04:31:41;;;;;;;14.33;6.53;;;;;;;;;;4962777;28;20698;-66
2022/06/12 04:34:28;;;;;;;13.50;6.30;;;;;;;;;;4970415;28;20235;-66
2022/06/12 04:36:57;;;;;;;14.07;6.27;;;;;;;;;;4956743;28;21186;-67
2022/06/12 04:39:25;;;;;;;12.07;5.60;;;;;;;;;;4954399;28;20240;-66
2022/06/12 04:41:52;;;;;;;12.70;5.83;;;;;;;;;;4954808;28;20319;-67
2022/06/12 04:44:22;;;;;;;11.93;5.53;;;;;;;;;;4958321;28;20293;-66
2022/06/12 04:46:49;;;;;;;11.27;5.07;;;;;;;;;;4959431;28;20225;-67
2022/06/12 04:49:17;;;;;;;12.13;5.20;;;;;;;;;;4953455;28;23791;-67
2022/06/12 04:51:44;;;;;;;13.23;4.90;;;;;;;;;;4940677;28;20592;-66
2022/06/12 04:54:10;;;;;;;13.63;5.07;;;;;;;;;;4970320;28;20235;-65
2022/06/12 04:56:37;;;;;;;11.67;4.00;;;;;;;;;;4933834;28;29219;-65
2022/06/12 04:59:04;;;;;;;12.83;3.90;;;;;;;;;;4954527;28;20251;-65
2022/06/12 05:01:32;;;;;;;12.17;4.10;;;;;;;;;;4953252;28;20899;-64
2022/06/12 05:03:59;;;;;;;12.83;3.50;;;;;;;;;;4969601;28;20239;-65
2022/06/12 05:06:26;;;;;;;11.83;3.80;;;;;;;;;;4957157;28;20236;-66
2022/06/12 05:08:53;;;;;;;14.13;4.20;;;;;;;;;;4958825;28;20243;-65
2022/06/12 05:11:20;;;;;;;12.53;3.70;;;;;;;;;;4971932;28;20226;-66
2022/06/12 05:13:47;;;;;;;13.97;3.43;;;;;;;;;;4971412;28;20232;-64
2022/06/12 05:16:26;;;;;;;9.67;3.43;;;;;;;;;;4947878;28;20311;-65
2022/06/12 05:18:53;;;;;;;10.80;3.07;;;;;;;;;;4961940;28;20228;-65
2022/06/12 05:21:19;;;;;;;9.53;3.20;;;;;;;;;;4958704;28;20227;-66
2022/06/12 05:23:46;;;;;;;10.57;3.30;;;;;;;;;;4964569;28;20752;-64
2022/06/12 05:26:13;;;;;;;12.33;3.27;;;;;;;;;;4962771;28;20239;-65
2022/06/12 05:28:40;;;;;;;14.73;3.27;;;;;;;;;;4989170;28;20727;-65
2022/06/12 05:31:06;;;;;;;6.77;3.00;;;;;;;;;;4967169;28;20235;-66
2022/06/12 05:33:33;;;;;;;8.23;3.00;;;;;;;;;;4961351;28;20232;-66
2022/06/12 05:36:00;;;;;;;8.43;2.97;;;;;;;;;;4973033;28;20248;-65
2022/06/12 05:38:26;;;;;;;11.53;3.67;;;;;;;;;;4966465;28;20244;-65
2022/06/12 05:40:53;;;;;;;11.57;3.20;;;;;;;;;;4952156;28;20247;-66
2022/06/12 05:43:20;;;;;;;9.37;2.90;;;;;;;;;;4969712;28;20634;-67
2022/06/12 05:45:46;;;;;;;12.50;3.30;;;;;;;;;;4958869;28;20232;-66
2022/06/12 05:48:18;;;;;;;9.80;3.23;;;;;;;;;;4968138;28;31779;-66
2022/06/12 05:50:55;;;;;;;11.10;3.00;;;;;;;;;;4937575;28;20697;-66
2022/06/12 05:53:23;;;;;;;13.27;3.57;;;;;;;;;;4961733;28;20250;-65
2022/06/12 05:55:50;;;;;;;10.50;2.80;;;;;;;;;;4964040;28;20244;-66
2022/06/12 05:58:17;;;;;;;10.70;3.10;;;;;;;;;;4964121;28;21435;-66
2022/06/12 06:00:44;;;;;;;9.53;3.17;;;;;;;;;;4961746;28;20309;-65
2022/06/12 06:03:10;;;;;;;11.37;3.20;;;;;;;;;;4968026;28;20219;-66
2022/06/12 06:05:38;;;;;;;6.97;2.50;;;;;;;;;;4968506;28;20257;-66
2022/06/12 06:08:04;;;;;;;9.70;2.70;;;;;;;;;;4950899;28;20712;-65
2022/06/12 06:10:31;;;;;;;7.87;2.70;;;;;;;;;;4962242;28;25079;-65
2022/06/12 06:12:58;;;;;;;12.03;2.60;;;;;;;;;;4933592;28;20817;-66
2022/06/12 06:15:24;;;;;;;10.80;2.87;;;;;;;;;;4969667;28;20236;-65
2022/06/12 06:17:52;;;;;;;8.33;2.70;;;;;;;;;;4973698;28;20623;-66
2022/06/12 06:20:22;;;;;;;11.20;2.80;;;;;;;;;;4967344;28;20236;-66
2022/06/12 06:22:49;;;;;;;12.20;2.83;;;;;;;;;;4962878;28;20853;-66
2022/06/12 06:25:16;;;;;;;9.97;2.80;;;;;;;;;;4965067;28;20237;-65
2022/06/12 06:27:43;;;;;;;9.50;2.30;;;;;;;;;;4959454;28;20333;-66
2022/06/12 06:30:27;;;;;;;10.17;2.63;;;;;;;;;;4968179;28;20643;-67
2022/06/12 06:32:54;;;;;;;5.53;1.83;;;;;;;;;;4970919;28;20948;-68
2022/06/12 06:35:38;;;;;;;10.43;2.10;;;;;;;;;;4980635;28;20335;-66
2022/06/12 06:38:05;;;;;;;6.60;1.73;;;;;;;;;;4965712;28;20228;-66
2022/06/12 06:40:32;;;;;;;7.13;1.73;;;;;;;;;;4975069;28;20366;-65
2022/06/12 06:43:04;;;;;;;7.00;1.73;;;;;;;;;;4971056;28;20627;-66
2022/06/12 06:48:16;;;;;;;10.90;2.17;;;;;;;;;;4946710;28;20885;-67
2022/06/12 06:50:43;;;;;;;8.83;1.90;;;;;;;;;;4969412;28;20232;-70
2022/06/12 06:53:11;;;;;;;7.27;1.60;;;;;;;;;;4962752;28;20229;-67
2022/06/12 06:55:38;;;;;;;9.73;1.90;;;;;;;;;;4986862;28;20226;-66
2022/06/12 06:58:09;;;;;;;6.27;1.50;;;;;;;;;;4967100;28;20231;-66
2022/06/12 07:00:36;;;;;;;6.50;2.00;;;;;;;;;;4962169;28;20228;-66
2022/06/12 07:03:03;;;;;;;5.87;1.57;;;;;;;;;;4968224;28;20604;-70
2022/06/12 07:05:30;;;;;;;6.17;1.80;;;;;;;;;;4962864;28;20228;-69
2022/06/12 07:07:57;;;;;;;5.00;1.37;;;;;;;;;;4952861;28;20227;-67
2022/06/12 07:10:24;;;;;;;5.97;1.67;;;;;;;;;;4899528;28;233883;-67
2022/06/12 07:12:56;;;;;;;5.63;1.90;;;;;;;;;;4611482;28;5094277;-67
2022/06/12 07:15:23;;;;;;;8.53;1.90;;;;;;;;;;4851363;28;677124;-67
2022/06/12 07:17:49;;;;;;;9.17;2.20;;;;;;;;;;4949010;28;222013;-69
2022/06/12 07:20:18;;;;;;;8.15;2.63;;;;;;;;;;4818610;28;646695;-67
2022/06/12 07:22:54;;;;;;;6.37;1.70;;;;;;;;;;4882567;28;217103;-67
2022/06/12 07:25:22;;;;;;;6.54;2.10;;;;;;;;;;4410279;28;5093212;-67
2022/06/12 07:27:53;;;;;;;6.68;1.65;;;;;;;;;;4710229;28;5099461;-68
2022/06/12 07:30:50;;;;;;;5.97;1.80;;;;;;;;;;4892463;28;554204;-68
2022/06/12 07:33:46;;;;;;;6.97;1.76;;;;;;;;;;4725452;28;5090812;-67
2022/06/12 07:36:17;;;;;;;9.13;1.97;;;;;;;;;;4707958;28;5094036;-68
2022/06/12 07:38:55;;;;;;;6.70;1.63;;;;;;;;;;4853223;28;677485;-68
2022/06/12 07:41:51;;;;;;;7.90;1.90;;;;;;;;;;4793999;28;1559894;-67
2022/06/12 07:44:32;;;;;;;4.50;1.50;;;;;;;;;;4937760;28;218006;-67
2022/06/12 07:47:02;;;;;;;6.57;1.87;;;;;;;;;;4962676;28;20221;-67
2022/06/12 07:49:30;;;;;;;4.03;1.63;;;;;;;;;;4932676;28;216140;-69
2022/06/12 07:51:59;;;;;;;9.23;1.90;;;;;;;;;;4907179;28;221586;-67
2022/06/12 07:54:27;;;;;;;7.37;1.93;;;;;;;;;;4907664;28;137904;-68
2022/06/12 07:56:53;;;;;;;4.53;1.53;;;;;;;;;;4898012;28;20229;-69
2022/06/12 07:59:21;;;;;;;5.93;1.70;;;;;;;;;;4968242;28;20228;-67
2022/06/12 08:01:50;;;;;;;4.83;1.40;;;;;;;;;;4945671;28;221218;-68
2022/06/12 08:04:27;;;;;;;4.73;1.40;;;;;;;;;;4617196;28;5089981;-66
2022/06/12 08:07:29;;;;;;;5.80;1.60;;;;;;;;;;4517170;28;5090872;-67
2022/06/12 08:10:49;;;;;;;4.63;1.47;;;;;;;;;;4499574;28;5093963;-67
2022/06/12 08:13:59;;;;;;;3.93;1.13;;;;;;;;;;4602331;28;5096649;-66
2022/06/12 08:16:54;;;;;;;3.85;1.50;;;;;;;;;;4479238;28;5091935;-67
2022/06/12 08:22:31;;;;;;;3.33;1.00;;;;;;;;;;4808594;28;237358;-66
2022/06/12 08:25:11;;;;;;;3.50;1.30;;;;;;;;;;4810140;28;20233;-66
2022/06/12 08:27:39;;;;;;;3.00;1.33;;;;;;;;;;4400630;28;5090209;-67
2022/06/12 08:30:41;;;;;;;4.67;1.40;;;;;;;;;;4664791;28;3314391;-66
2022/06/12 08:33:16;;;;;;;3.84;1.18;;;;;;;;;;4659547;28;5092794;-68
2022/06/12 08:35:53;;;;;;;4.90;1.60;;;;;;;;;;4867587;28;236632;-67
2022/06/12 08:38:40;;;;;;;3.70;1.10;;;;;;;;;;4459451;28;5091519;-67
2022/06/12 08:41:53;;;;;;;3.40;1.30;;;;;;;;;;4820484;28;678231;-66
2022/06/12 08:44:42;;;;;;;4.13;1.00;;;;;;;;;;4784176;28;675481;-66
2022/06/12 08:47:21;;;;;;;2.60;1.00;;;;;;;;;;4873503;28;638887;-63
2022/06/12 08:49:52;;;;;;;5.27;1.40;;;;;;;;;;4974891;28;20230;-56
2022/06/12 08:52:26;;;;;;;4.70;1.13;;;;;;;;;;4967546;28;20256;-55
2022/06/12 08:55:14;;;;;;;4.60;1.40;;;;;;;;;;4971744;28;20307;-57
2022/06/12 08:57:56;;;;;;;6.50;1.50;;;;;;;;;;4964317;28;20230;-57
2022/06/12 09:00:25;;;;;;;5.63;1.20;;;;;;;;;;4974933;28;20231;-55
2022/06/12 09:02:52;;;;;;;37.00;4.47;;;;;;;;;;4962628;28;20224;-57
2022/06/12 09:05:20;;;;;;;6.83;1.37;;;;;;;;;;4967797;28;20234;-55
2022/06/12 09:08:00;;;;;;;6.77;1.37;;;;;;;;;;4963038;28;20750;-55
2022/06/12 09:10:27;;;;;;;5.17;1.40;;;;;;;;;;4984426;28;20592;-53
2022/06/12 09:12:58;;;;;;;5.37;1.10;;;;;;;;;;4978467;28;20231;-55
2022/06/12 09:15:27;;;;;;;4.13;1.00;;;;;;;;;;4967212;28;20232;-54
2022/06/12 09:18:06;;;;;;;14.67;1.40;;;;;;;;;;4972886;28;20236;-55
2022/06/12 09:20:41;;;;;;;4.87;1.13;;;;;;;;;;4968530;28;20329;-56
2022/06/12 09:23:11;;;;;;;2.97;1.20;;;;;;;;;;4975739;28;20623;-55
2022/06/12 09:25:44;;;;;;;13.37;1.80;;;;;;;;;;4967601;28;20220;-56
2022/06/12 09:28:18;;;;;;;5.50;1.57;;;;;;;;;;4964164;28;20726;-57
2022/06/12 09:30:49;;;;;;;15.17;1.63;;;;;;;;;;4969575;28;20231;-56
2022/06/12 09:33:22;;;;;;;105.90;9.20;;;;;;;;;;4971207;28;20648;-56
2022/06/12 09:36:00;;;;;;;3.17;1.10;;;;;;;;;;4972782;28;20232;-56
2022/06/12 09:38:47;;;;;;;4.20;1.27;;;;;;;;;;4971402;28;20689;-55
2022/06/12 09:41:20;;;;;;;4.13;1.53;;;;;;;;;;4980021;28;21189;-56
2022/06/12 09:43:47;;;;;;;3.77;1.00;;;;;;;;;;4966417;28;20635;-55
2022/06/12 09:46:17;;;;;;;2.90;1.10;;;;;;;;;;4973694;28;20982;-55
2022/06/12 09:49:03;;;;;;;4.50;1.10;;;;;;;;;;4964702;28;20595;-55
2022/06/12 09:51:43;;;;;;;5.83;1.43;;;;;;;;;;4971572;28;20220;-55
2022/06/12 09:54:10;;;;;;;6.73;1.47;;;;;;;;;;4968453;28;20595;-56
2022/06/12 09:56:54;;;;;;;5.80;1.33;;;;;;;;;;4963441;28;20243;-57
2022/06/12 09:59:25;;;;;;;12.23;1.60;;;;;;;;;;4953183;28;20703;-56
2022/06/12 10:01:54;;;;;;;8.87;1.47;;;;;;;;;;4965043;28;20232;-54
2022/06/12 10:04:28;;;;;;;6.13;1.20;;;;;;;;;;4976736;28;20291;-55
2022/06/12 10:07:15;;;;;;;4.03;0.97;;;;;;;;;;4968683;28;20947;-57
2022/06/12 10:09:47;;;;;;;3.57;1.23;;;;;;;;;;4971995;28;20907;-55
2022/06/12 10:12:16;;;;;;;3.60;1.00;;;;;;;;;;4955648;28;20328;-56
2022/06/12 10:14:44;;;;;;;3.17;1.10;;;;;;;;;;4975391;28;20275;-56
2022/06/12 10:17:11;;;;;;;6.27;1.43;;;;;;;;;;4966339;28;20243;-53
2022/06/12 10:19:55;;;;;;;4.27;1.40;;;;;;;;;;4969569;28;20220;-56
2022/06/12 10:22:28;;;;;;;5.57;1.47;;;;;;;;;;4971561;28;20248;-55
2022/06/12 10:24:55;;;;;;;6.23;1.33;;;;;;;;;;4974224;28;20381;-55
2022/06/12 10:27:22;;;;;;;5.10;1.40;;;;;;;;;;4983140;28;20238;-57
2022/06/12 10:30:00;;;;;;;4.97;1.50;;;;;;;;;;4969462;28;20688;-55
2022/06/12 10:32:29;;;;;;;4.93;1.30;;;;;;;;;;4971760;28;20228;-55
2022/06/12 10:35:12;;;;;;;4.73;1.60;;;;;;;;;;4974598;28;20236;-58
2022/06/12 10:37:39;;;;;;;8.97;1.60;;;;;;;;;;4985038;28;20236;-56
2022/06/12 10:40:16;;;;;;;5.50;1.40;;;;;;;;;;4975373;28;20315;-53
2022/06/12 10:42:43;;;;;;;4.50;1.20;;;;;;;;;;4967374;28;20657;-58
2022/06/12 10:45:22;;;;;;;5.70;1.23;;;;;;;;;;4968845;28;20247;-56
2022/06/12 10:47:50;;;;;;;10.40;1.83;;;;;;;;;;4980567;28;20224;-56
2022/06/12 10:50:17;;;;;;;9.13;1.60;;;;;;;;;;4975393;28;20323;-55
2022/06/12 10:52:57;;;;;;;4.10;1.60;;;;;;;;;;4975370;28;20274;-56
2022/06/12 10:55:28;;;;;;;12.43;1.80;;;;;;;;;;4972519;28;20228;-61
2022/06/12 10:58:02;;;;;;;21.50;2.77;;;;;;;;;;4978627;28;20271;-56
2022/06/12 11:00:30;;;;;;;14.73;1.97;;;;;;;;;;4956014;28;20226;-57
2022/06/12 11:02:59;;;;;;;5.33;1.60;;;;;;;;;;4961914;28;20236;-60
2022/06/12 11:05:29;;;;;;;6.07;1.50;;;;;;;;;;4973737;28;20244;-56
2022/06/12 11:07:56;;;;;;;7.00;1.53;;;;;;;;;;4972143;28;20228;-54
2022/06/12 11:10:22;;;;;;;20.17;1.80;;;;;;;;;;4970812;28;21144;-54
2022/06/12 11:12:55;;;;;;;5.10;1.53;;;;;;;;;;4952727;28;20238;-54
2022/06/12 11:15:28;;;;;;;7.37;1.53;;;;;;;;;;4966045;28;20239;-50
2022/06/12 11:18:14;;;;;;;4.87;1.30;;;;;;;;;;4969895;28;20248;-53
2022/06/12 11:20:44;;;;;;;5.47;1.50;;;;;;;;;;4964614;28;20232;-50
2022/06/12 11:23:17;;;;;;;4.50;1.50;;;;;;;;;;4964544;28;20245;-53
2022/06/12 11:26:22;;;;;;;6.17;1.50;;;;;;;;;;4971961;28;20278;-54
2022/06/12 11:29:02;;;;;;;4.73;1.40;;;;;;;;;;4949803;28;20238;-53
2022/06/12 11:31:47;;;;;;;4.83;1.33;;;;;;;;;;4977912;28;20242;-51
2022/06/12 11:34:20;;;;;;;10.97;1.80;;;;;;;;;;4963400;28;20242;-56
2022/06/12 11:36:59;;;;;;;6.90;1.40;;;;;;;;;;4971335;28;20219;-55
2022/06/12 11:39:37;;;;;;;4.83;1.33;;;;;;;;;;4966824;28;20239;-54
2022/06/12 11:42:18;;;;;;;4.87;1.50;;;;;;;;;;4971697;28;20278;-54
2022/06/12 11:44:49;;;;;;;15.73;2.23;;;;;;;;;;4961102;28;20297;-55
2022/06/12 11:47:41;;;;;;;8.13;2.10;;;;;;;;;;4971632;28;20328;-56
2022/06/12 11:50:20;;;;;;;14.80;2.47;;;;;;;;;;4969504;28;20224;-56
2022/06/12 11:52:50;;;;;;;20.20;2.23;;;;;;;;;;4972407;28;20239;-59
2022/06/12 11:55:29;;;;;;;7.60;2.00;;;;;;;;;;4961742;28;20228;-67
2022/06/12 11:58:19;;;;;;;5.27;1.70;;;;;;;;;;4967679;28;20298;-66
2022/06/12 12:01:10;;;;;;;7.00;1.60;;;;;;;;;;4961726;28;20224;-67
2022/06/12 12:03:37;;;;;;;5.83;1.47;;;;;;;;;;4974700;28;20235;-67
2022/06/12 12:06:16;;;;;;;5.63;1.73;;;;;;;;;;4967840;28;20246;-66
2022/06/12 12:08:49;;;;;;;4.57;1.40;;;;;;;;;;4951408;28;20259;-67
2022/06/12 12:11:54;;;;;;;6.27;1.87;;;;;;;;;;4975426;28;20225;-67
2022/06/12 12:14:24;;;;;;;5.23;1.70;;;;;;;;;;4940212;28;20252;-66
2022/06/12 12:16:52;;;;;;;5.80;1.90;;;;;;;;;;4942169;28;20456;-64
2022/06/12 12:19:22;;;;;;;4.10;1.27;;;;;;;;;;4958532;28;20477;-66
2022/06/12 12:21:58;;;;;;;4.87;1.70;;;;;;;;;;4971959;28;20713;-67
2022/06/12 12:24:43;;;;;;;5.63;2.10;;;;;;;;;;5006717;28;20566;-66
2022/06/12 12:27:23;;;;;;;7.70;1.63;;;;;;;;;;4954633;28;21010;-66
2022/06/12 12:29:50;;;;;;;8.93;1.90;;;;;;;;;;4967138;28;20286;-66
2022/06/12 12:32:17;;;;;;;6.70;1.90;;;;;;;;;;4962857;28;20989;-67
2022/06/12 12:34:44;;;;;;;7.87;2.10;;;;;;;;;;4978988;28;20295;-67
2022/06/12 12:43:15;;;;;;;7.87;1.90;;;;;;;;;;4952039;28;21005;-68
2022/06/12 12:46:00;;;;;;;9.07;2.30;;;;;;;;;;4963223;28;22862;-67
2022/06/12 12:48:37;;;;;;;10.90;2.10;;;;;;;;;;4969291;28;20232;-68
2022/06/12 12:51:03;;;;;;;6.83;1.83;;;;;;;;;;4956241;28;20283;-69
2022/06/12 12:53:31;;;;;;;8.60;1.90;;;;;;;;;;4967835;28;20290;-68
2022/06/12 12:56:14;;;;;;;6.13;1.73;;;;;;;;;;4974423;28;20260;-69
2022/06/12 12:58:41;;;;;;;6.80;2.03;;;;;;;;;;4949312;28;20316;-68
2022/06/12 13:01:14;;;;;;;6.57;1.83;;;;;;;;;;4965965;28;20684;-72
2022/06/12 13:03:46;;;;;;;6.47;1.90;;;;;;;;;;4965226;28;20715;-68
2022/06/12 13:06:16;;;;;;;8.23;1.93;;;;;;;;;;4963068;28;20251;-68
2022/06/12 13:08:43;;;;;;;6.83;1.80;;;;;;;;;;4966327;28;20236;-68
2022/06/12 13:11:12;;;;;;;6.77;1.90;;;;;;;;;;4955009;28;20788;-68
2022/06/12 13:13:45;;;;;;;5.67;1.83;;;;;;;;;;4983262;28;20312;-68
2022/06/12 13:16:12;;;;;;;6.97;1.83;;;;;;;;;;4972594;28;20251;-69
2022/06/12 13:18:57;;;;;;;7.87;2.00;;;;;;;;;;4965695;28;20224;-69
2022/06/12 13:21:31;;;;;;;6.57;1.80;;;;;;;;;;4973011;28;20315;-67
2022/06/12 13:24:01;;;;;;;6.47;2.00;;;;;;;;;;4971572;28;20236;-68
2022/06/12 13:26:45;;;;;;;5.57;1.57;;;;;;;;;;4961057;28;20699;-68
2022/06/12 13:29:17;;;;;;;5.10;1.73;;;;;;;;;;4946881;28;20248;-68
2022/06/12 13:31:59;;;;;;;6.57;1.80;;;;;;;;;;4966891;28;20778;-69
2022/06/12 13:34:26;;;;;;;4.97;1.97;;;;;;;;;;4965139;28;20239;-68
2022/06/12 13:36:53;;;;;;;9.47;2.20;;;;;;;;;;4979787;28;20247;-68
2022/06/12 13:39:22;;;;;;;7.03;2.03;;;;;;;;;;4974855;28;20235;-68
2022/06/12 13:41:50;;;;;;;5.30;2.10;;;;;;;;;;4968022;28;20239;-68
2022/06/12 13:44:25;;;;;;;6.57;1.80;;;;;;;;;;4969774;28;21126;-68
2022/06/12 13:46:53;;;;;;;6.40;1.80;;;;;;;;;;4964915;28;20231;-68
2022/06/12 13:49:40;;;;;;;8.90;1.90;;;;;;;;;;4972334;28;20238;-68
2022/06/12 13:52:27;;;;;;;6.87;1.90;;;;;;;;;;4964363;28;20231;-67
2022/06/12 13:54:54;;;;;;;7.43;2.03;;;;;;;;;;4960219;28;20246;-68
2022/06/12 13:57:39;;;;;;;8.20;1.90;;;;;;;;;;4951983;28;20228;-69
2022/06/12 14:00:24;;;;;;;9.30;1.80;;;;;;;;;;4986519;28;20231;-68
2022/06/12 14:02:51;;;;;;;6.87;2.50;;;;;;;;;;4968927;28;20236;-68
2022/06/12 14:05:49;;;;;;;5.77;1.97;;;;;;;;;;4951163;28;20224;-68
2022/06/12 14:08:15;;;;;;;12.47;2.70;;;;;;;;;;4959519;28;20713;-68
2022/06/12 14:10:43;;;;;;;8.87;2.30;;;;;;;;;;5024669;28;21027;-68
2022/06/12 14:13:14;;;;;;;7.13;2.07;;;;;;;;;;4997413;28;20606;-67
2022/06/12 14:15:41;;;;;;;8.20;1.90;;;;;;;;;;4967250;28;20612;-68
2022/06/12 14:18:21;;;;;;;9.00;2.10;;;;;;;;;;5003716;28;20223;-68
2022/06/12 14:20:47;;;;;;;10.50;2.27;;;;;;;;;;5001306;28;20352;-68
2022/06/12 14:23:19;;;;;;;6.23;2.13;;;;;;;;;;4961551;28;20233;-69
2022/06/12 14:25:50;;;;;;;7.70;2.30;;;;;;;;;;4970137;28;20719;-68
2022/06/12 14:28:19;;;;;;;8.37;2.50;;;;;;;;;;4962012;28;20885;-68
2022/06/12 14:30:46;;;;;;;7.63;2.10;;;;;;;;;;4950033;28;20236;-68
2022/06/12 14:33:40;;;;;;;6.10;1.83;;;;;;;;;;4955333;28;20225;-68
2022/06/12 14:36:08;;;;;;;6.90;2.20;;;;;;;;;;4957127;28;39430;-68
2022/06/12 14:38:35;;;;;;;7.23;2.03;;;;;;;;;;4969424;28;20236;-68
2022/06/12 14:41:02;;;;;;;6.23;1.80;;;;;;;;;;4956275;28;20223;-68
2022/06/12 14:43:32;;;;;;;8.83;2.00;;;;;;;;;;4989189;28;20238;-68
2022/06/12 14:46:27;;;;;;;7.53;2.03;;;;;;;;;;4985715;28;20239;-68
2022/06/12 14:49:14;;;;;;;8.47;2.13;;;;;;;;;;4967816;28;20224;-67
2022/06/12 14:51:41;;;;;;;7.13;2.00;;;;;;;;;;4953862;28;20675;-67
2022/06/12 14:54:07;;;;;;;7.97;2.23;;;;;;;;;;4963880;28;20278;-67
2022/06/12 14:56:34;;;;;;;8.50;2.27;;;;;;;;;;4963364;28;20224;-68
2022/06/12 14:59:00;;;;;;;9.13;2.00;;;;;;;;;;4962790;28;20655;-68
2022/06/12 15:01:27;;;;;;;4.37;1.43;;;;;;;;;;4958327;28;20595;-67
2022/06/12 15:03:54;;;;;;;7.17;1.80;;;;;;;;;;4963738;28;20225;-67
2022/06/12 15:06:21;;;;;;;7.73;2.10;;;;;;;;;;4947582;28;20244;-73
2022/06/12 15:08:48;;;;;;;7.17;1.97;;;;;;;;;;4962684;28;25277;-68
2022/06/12 15:11:15;;;;;;;7.33;2.10;;;;;;;;;;4973962;28;20292;-69
2022/06/12 15:13:42;;;;;;;4.57;1.63;;;;;;;;;;4964540;28;21058;-67
2022/06/12 15:16:11;;;;;;;7.23;2.10;;;;;;;;;;4961750;28;20229;-68
2022/06/12 15:18:38;;;;;;;6.73;1.60;;;;;;;;;;4961754;28;20327;-70
2022/06/12 15:21:05;;;;;;;6.00;1.93;;;;;;;;;;4962082;28;20787;-68